Time;durP1;ratioP1;P1;durP2;ratioP2;P2;SDS_P1;SDS_P2;PMS_P1;PMS_P2;Temp;Humidity;BMP_temperature;BMP_pressure;BME280_temperature;BME280_humidity;BME280_pressure;Samples;Min_cycle;Max_cycle;Signal;HPM_P1;HPM_P2
2021/06/08 00:02:20;;;;;;;3.72;3.42;;;26.00;45.40;;;;;;5065729;28;20044;-62
2021/06/08 00:04:47;;;;;;;3.22;2.92;;;26.00;45.50;;;;;;5063235;28;20229;-62
2021/06/08 00:07:14;;;;;;;3.10;2.90;;;25.90;45.40;;;;;;5065508;28;20052;-62
2021/06/08 00:09:42;;;;;;;3.03;2.83;;;25.90;45.50;;;;;;5064018;28;20154;-62
2021/06/08 00:12:09;;;;;;;3.10;2.80;;;25.90;45.40;;;;;;5064478;28;20037;-64
2021/06/08 00:14:36;;;;;;;3.10;2.90;;;25.90;45.40;;;;;;5064786;28;20486;-62
2021/06/08 00:17:04;;;;;;;3.65;3.35;;;25.90;45.50;;;;;;5064925;28;20072;-62
2021/06/08 00:19:31;;;;;;;3.45;3.22;;;25.90;45.50;;;;;;5065042;28;20052;-62
2021/06/08 00:21:58;;;;;;;3.38;3.10;;;25.90;45.50;;;;;;5065531;28;20107;-62
2021/06/08 00:24:26;;;;;;;2.75;2.55;;;25.90;45.60;;;;;;5064474;28;20041;-62
2021/06/08 00:26:53;;;;;;;3.65;3.33;;;25.90;45.60;;;;;;5064874;28;20099;-62
2021/06/08 00:29:20;;;;;;;3.15;2.95;;;25.90;45.60;;;;;;5064617;28;20044;-62
2021/06/08 00:31:48;;;;;;;3.13;2.85;;;25.90;45.60;;;;;;5063285;28;20190;-62
2021/06/08 00:34:15;;;;;;;3.35;3.10;;;25.90;45.60;;;;;;5062979;28;20280;-63
2021/06/08 00:36:42;;;;;;;3.30;3.10;;;25.90;45.60;;;;;;5064529;28;20086;-62
2021/06/08 00:39:09;;;;;;;3.30;3.10;;;25.90;45.60;;;;;;5064899;28;20049;-62
2021/06/08 00:41:42;;;;;;;4.13;3.20;;;25.90;45.60;;;;;;5064241;28;20444;-62
2021/06/08 00:44:13;;;;;;;3.42;3.13;;;25.90;45.60;;;;;;5067393;28;20117;-62
2021/06/08 00:46:41;;;;;;;3.20;3.00;;;25.80;45.50;;;;;;5069001;28;20065;-62
2021/06/08 00:49:09;;;;;;;4.22;3.03;;;25.80;45.60;;;;;;5068837;28;20341;-62
2021/06/08 00:51:36;;;;;;;3.50;3.20;;;25.80;45.50;;;;;;5068230;28;20099;-63
2021/06/08 00:54:10;;;;;;;3.63;3.33;;;25.80;45.60;;;;;;5068295;28;20045;-62
2021/06/08 00:56:40;;;;;;;3.33;3.08;;;25.80;45.60;;;;;;5068258;28;20048;-62
2021/06/08 00:59:08;;;;;;;2.75;2.55;;;25.80;45.60;;;;;;5068145;28;20122;-62
2021/06/08 01:01:36;;;;;;;2.92;2.72;;;25.80;45.60;;;;;;5067985;28;20131;-62
2021/06/08 01:04:06;;;;;;;2.80;2.60;;;25.80;45.70;;;;;;5068047;28;20536;-62
2021/06/08 01:06:35;;;;;;;3.75;3.45;;;25.70;45.60;;;;;;5068684;28;20048;-62
2021/06/08 01:09:04;;;;;;;3.10;2.90;;;25.70;45.60;;;;;;5068353;28;20041;-62
2021/06/08 01:11:32;;;;;;;3.03;2.83;;;25.70;45.70;;;;;;5068093;28;20053;-62
2021/06/08 01:14:00;;;;;;;3.13;2.92;;;25.70;45.60;;;;;;5068234;28;20063;-62
2021/06/08 01:16:29;;;;;;;3.00;2.70;;;25.70;45.60;;;;;;5067783;28;20254;-62
2021/06/08 01:18:57;;;;;;;3.77;3.47;;;25.70;45.60;;;;;;5068266;28;20055;-62
2021/06/08 01:21:27;;;;;;;3.03;2.83;;;25.70;45.60;;;;;;5068113;28;20545;-62
2021/06/08 01:23:55;;;;;;;3.22;2.92;;;25.70;45.50;;;;;;5068163;28;20493;-62
2021/06/08 01:26:26;;;;;;;3.30;3.00;;;25.70;45.50;;;;;;5067490;28;20131;-63
2021/06/08 01:28:59;;;;;;;3.20;2.90;;;25.70;45.50;;;;;;5067710;28;20432;-62
2021/06/08 01:31:29;;;;;;;2.50;2.35;;;25.70;45.50;;;;;;5067661;28;20341;-62
2021/06/08 01:33:58;;;;;;;5.25;3.10;;;25.70;45.50;;;;;;5068045;28;20078;-62
2021/06/08 01:36:28;;;;;;;3.35;3.15;;;25.70;45.60;;;;;;5067865;28;20132;-63
2021/06/08 01:38:55;;;;;;;3.20;3.00;;;25.70;45.60;;;;;;5067947;28;20486;-62
2021/06/08 01:41:25;;;;;;;3.00;2.80;;;25.70;45.60;;;;;;5067324;28;20052;-62
2021/06/08 01:43:53;;;;;;;3.13;2.92;;;25.60;45.60;;;;;;5067338;28;20048;-62
2021/06/08 01:46:22;;;;;;;3.13;2.92;;;25.60;45.60;;;;;;5067060;28;20353;-62
2021/06/08 01:48:50;;;;;;;3.10;2.90;;;25.60;45.60;;;;;;5067651;28;20503;-62
2021/06/08 01:51:48;;;;;;;3.17;2.88;;;25.60;45.60;;;;;;5067325;28;20053;-62
2021/06/08 01:54:40;;;;;;;2.88;2.65;;;25.60;45.60;;;;;;5065929;28;20045;-62
2021/06/08 01:57:31;;;;;;;2.95;2.75;;;25.60;45.70;;;;;;5067000;28;20360;-62
2021/06/08 02:00:12;;;;;;;3.03;2.75;;;25.60;45.60;;;;;;5067481;28;20222;-62
2021/06/08 02:02:57;;;;;;;2.78;2.58;;;25.60;45.60;;;;;;5067145;28;20198;-62
2021/06/08 02:05:37;;;;;;;2.80;2.60;;;25.60;45.60;;;;;;5067006;28;20044;-62
2021/06/08 02:08:39;;;;;;;3.55;2.60;;;25.60;45.60;;;;;;5067503;28;20206;-62
2021/06/08 02:11:10;;;;;;;3.05;2.80;;;25.60;45.50;;;;;;5066017;28;20147;-62
2021/06/08 02:14:17;;;;;;;2.97;2.78;;;25.60;45.50;;;;;;5065319;28;20460;-62
2021/06/08 02:16:49;;;;;;;2.97;2.78;;;25.60;45.50;;;;;;5066389;28;20330;-62
2021/06/08 02:19:20;;;;;;;2.90;2.70;;;25.60;45.50;;;;;;5066922;28;20049;-62
2021/06/08 02:21:50;;;;;;;3.20;3.00;;;25.60;45.50;;;;;;5066926;28;20448;-62
2021/06/08 02:24:20;;;;;;;2.90;2.70;;;25.60;45.60;;;;;;5066834;28;20124;-62
2021/06/08 02:26:49;;;;;;;2.90;2.70;;;25.60;45.60;;;;;;5065627;28;20135;-62
2021/06/08 02:29:20;;;;;;;3.17;2.97;;;25.50;45.50;;;;;;5066573;28;20050;-62
2021/06/08 02:31:48;;;;;;;2.92;2.72;;;25.50;45.50;;;;;;5066791;28;20308;-62
2021/06/08 02:34:17;;;;;;;3.28;2.97;;;25.60;45.60;;;;;;5065050;28;20118;-62
2021/06/08 02:36:45;;;;;;;2.53;2.35;;;25.50;45.50;;;;;;5066910;28;20128;-62
2021/06/08 02:39:14;;;;;;;2.85;2.65;;;25.50;45.50;;;;;;5067091;28;20049;-62
2021/06/08 02:41:42;;;;;;;3.05;2.85;;;25.50;45.50;;;;;;5066429;28;20044;-62
2021/06/08 02:44:10;;;;;;;2.70;2.50;;;25.50;45.50;;;;;;5066001;28;20559;-62
2021/06/08 02:46:38;;;;;;;2.45;2.20;;;25.50;45.50;;;;;;5065994;28;20051;-62
2021/06/08 02:49:06;;;;;;;3.88;2.40;;;25.50;45.40;;;;;;5065960;28;20055;-62
2021/06/08 02:51:36;;;;;;;2.30;2.20;;;25.50;45.40;;;;;;5066447;28;20136;-62
2021/06/08 02:54:04;;;;;;;2.92;2.63;;;25.50;45.30;;;;;;5065587;28;20098;-62
2021/06/08 02:56:32;;;;;;;2.60;2.40;;;25.50;45.30;;;;;;5065798;28;20080;-62
2021/06/08 02:59:01;;;;;;;2.97;2.72;;;25.50;45.30;;;;;;5064795;28;20551;-62
2021/06/08 03:01:30;;;;;;;2.37;2.27;;;25.50;45.30;;;;;;5066069;28;20481;-62
2021/06/08 03:04:00;;;;;;;3.05;2.60;;;25.50;45.30;;;;;;5065491;28;20397;-62
2021/06/08 03:06:32;;;;;;;2.60;2.42;;;25.50;45.30;;;;;;5066123;28;20165;-62
2021/06/08 03:09:07;;;;;;;2.78;2.58;;;25.50;45.30;;;;;;5066392;28;20511;-62
2021/06/08 03:11:45;;;;;;;2.10;2.00;;;25.50;45.30;;;;;;5064721;28;20055;-62
2021/06/08 03:14:15;;;;;;;2.90;2.70;;;25.50;45.20;;;;;;5065851;28;20045;-62
2021/06/08 03:16:48;;;;;;;2.70;2.50;;;25.50;45.30;;;;;;5065774;28;20143;-63
2021/06/08 03:19:20;;;;;;;2.70;2.50;;;25.50;45.20;;;;;;5065504;28;20048;-62
2021/06/08 03:21:50;;;;;;;2.45;2.28;;;25.50;45.20;;;;;;5065707;28;20128;-62
2021/06/08 03:24:22;;;;;;;2.55;2.35;;;25.50;45.20;;;;;;5065135;28;20528;-62
2021/06/08 03:26:49;;;;;;;2.33;2.22;;;25.50;45.20;;;;;;5066323;28;20255;-62
2021/06/08 03:29:18;;;;;;;3.45;2.65;;;25.50;45.20;;;;;;5064198;28;20131;-62
2021/06/08 03:31:47;;;;;;;2.60;2.40;;;25.50;45.10;;;;;;5065857;28;20379;-62
2021/06/08 03:34:16;;;;;;;2.50;2.40;;;25.50;45.10;;;;;;5065349;28;20549;-62
2021/06/08 03:36:46;;;;;;;2.88;2.67;;;25.60;45.10;;;;;;5065516;28;20554;-63
2021/06/08 03:39:15;;;;;;;2.47;2.35;;;25.60;45.00;;;;;;5064151;28;20131;-62
2021/06/08 03:41:47;;;;;;;2.53;2.42;;;25.60;45.00;;;;;;5065387;28;20116;-62
2021/06/08 03:44:19;;;;;;;2.20;2.10;;;25.60;44.90;;;;;;5065041;28;20080;-62
2021/06/08 03:46:50;;;;;;;2.40;2.30;;;25.60;44.90;;;;;;5065119;28;20060;-63
2021/06/08 03:49:19;;;;;;;2.50;2.40;;;25.70;44.80;;;;;;5064639;28;20082;-62
2021/06/08 03:51:49;;;;;;;2.60;2.40;;;25.60;44.70;;;;;;5064791;28;20133;-63
2021/06/08 03:54:17;;;;;;;2.63;2.45;;;25.70;44.70;;;;;;5064528;28;20075;-62
2021/06/08 03:56:49;;;;;;;2.78;2.60;;;25.70;44.70;;;;;;5065558;28;20048;-62
2021/06/08 03:59:20;;;;;;;2.67;2.47;;;25.70;44.60;;;;;;5064850;28;20246;-62
2021/06/08 04:01:49;;;;;;;2.50;2.30;;;25.70;44.60;;;;;;5065103;28;20054;-62
2021/06/08 04:04:17;;;;;;;2.58;2.38;;;25.80;44.60;;;;;;5063788;28;20131;-62
2021/06/08 04:06:48;;;;;;;2.67;2.47;;;25.80;44.50;;;;;;5065016;28;20250;-62
2021/06/08 04:09:17;;;;;;;2.60;2.40;;;25.80;44.50;;;;;;5062430;28;20075;-62
2021/06/08 04:11:49;;;;;;;2.38;2.20;;;25.80;44.40;;;;;;5064665;28;20524;-62
2021/06/08 04:14:16;;;;;;;2.53;2.33;;;25.90;44.40;;;;;;5064069;28;20148;-62
2021/06/08 04:16:45;;;;;;;2.78;2.58;;;25.90;44.40;;;;;;5064721;28;20048;-62
2021/06/08 04:19:14;;;;;;;2.38;2.28;;;25.90;44.90;;;;;;5063426;28;20128;-62
2021/06/08 04:21:43;;;;;;;2.08;1.98;;;25.90;44.30;;;;;;5065232;28;20076;-62
2021/06/08 04:24:11;;;;;;;3.13;2.88;;;25.90;44.30;;;;;;5064770;28;20083;-62
2021/06/08 04:26:39;;;;;;;2.50;2.30;;;26.00;44.30;;;;;;5064879;28;20494;-62
2021/06/08 04:29:06;;;;;;;2.38;2.28;;;25.90;44.20;;;;;;5064876;28;20128;-62
2021/06/08 04:31:35;;;;;;;2.58;2.45;;;26.00;44.20;;;;;;5064341;28;20140;-62
2021/06/08 04:34:03;;;;;;;2.10;2.00;;;26.00;44.20;;;;;;5063980;28;20508;-62
2021/06/08 04:36:30;;;;;;;2.35;2.15;;;26.00;44.20;;;;;;5064264;28;20563;-62
2021/06/08 04:38:57;;;;;;;2.38;2.17;;;26.00;44.10;;;;;;5063477;28;20570;-63
2021/06/08 04:41:25;;;;;;;2.72;2.53;;;26.00;44.10;;;;;;5062877;28;20097;-62
2021/06/08 04:43:52;;;;;;;2.38;2.28;;;26.10;44.10;;;;;;5061987;28;20405;-62
2021/06/08 04:46:19;;;;;;;2.40;2.30;;;26.10;44.10;;;;;;5061362;28;20061;-62
2021/06/08 04:48:47;;;;;;;2.28;2.13;;;26.10;44.10;;;;;;5062971;28;20509;-62
2021/06/08 04:51:14;;;;;;;2.42;2.33;;;26.10;44.10;;;;;;5060185;28;20144;-62
2021/06/08 04:53:41;;;;;;;2.80;2.60;;;26.20;44.20;;;;;;5061496;28;20040;-62
2021/06/08 04:56:09;;;;;;;2.08;1.98;;;26.20;44.10;;;;;;5061785;28;20048;-62
2021/06/08 04:58:36;;;;;;;2.40;2.30;;;26.20;44.10;;;;;;5062362;28;20065;-62
2021/06/08 05:01:29;;;;;;;3.10;2.90;;;26.20;44.10;;;;;;5059578;28;20132;-62
2021/06/08 05:04:01;;;;;;;2.40;2.30;;;26.30;44.10;;;;;;5064409;28;20106;-63
2021/06/08 05:06:34;;;;;;;2.33;2.10;;;26.30;44.00;;;;;;5062770;28;20143;-62
2021/06/08 05:09:10;;;;;;;2.28;2.17;;;26.30;44.00;;;;;;5062620;28;20068;-62
2021/06/08 05:11:50;;;;;;;2.10;2.00;;;26.30;43.90;;;;;;5059340;28;20225;-62
2021/06/08 05:14:18;;;;;;;4.78;2.85;;;26.30;43.90;;;;;;5061400;28;20053;-62
2021/06/08 05:16:50;;;;;;;2.20;2.10;;;26.30;43.90;;;;;;5060620;28;20067;-62
2021/06/08 05:19:18;;;;;;;2.55;2.20;;;26.40;43.90;;;;;;5060673;28;20489;-62
2021/06/08 05:21:46;;;;;;;2.50;2.30;;;26.40;43.90;;;;;;5058551;28;20068;-62
2021/06/08 05:24:16;;;;;;;2.38;2.28;;;26.50;43.90;;;;;;5053155;28;20120;-62
2021/06/08 05:26:46;;;;;;;3.08;2.83;;;26.50;44.00;;;;;;5055947;28;20447;-63
2021/06/08 05:29:17;;;;;;;4.93;2.75;;;26.50;43.90;;;;;;5032690;28;20556;-63
2021/06/08 05:31:45;;;;;;;3.03;2.83;;;26.60;44.00;;;;;;5061197;28;20409;-64
2021/06/08 05:34:14;;;;;;;2.55;2.45;;;26.60;44.30;;;;;;5032320;28;20133;-62
2021/06/08 05:36:42;;;;;;;3.45;3.15;;;26.60;44.20;;;;;;5064927;28;20045;-62
2021/06/08 05:39:10;;;;;;;4.22;3.83;;;26.60;44.70;;;;;;5053475;28;20137;-63
2021/06/08 05:41:38;;;;;;;4.35;3.70;;;26.60;44.90;;;;;;5076722;28;20123;-62
2021/06/08 05:47:46;;;;;;;5.53;4.95;;;26.60;45.80;;;;;;5096163;28;20038;-60
2021/06/08 05:50:13;;;;;;;5.63;5.13;;;26.50;45.90;;;;;;5095831;28;20082;-60
2021/06/08 05:52:41;;;;;;;6.05;5.55;;;26.50;46.20;;;;;;5095982;28;20158;-60
2021/06/08 05:55:11;;;;;;;8.18;6.07;;;26.30;46.40;;;;;;5093108;28;20079;-60
2021/06/08 05:57:38;;;;;;;11.68;6.18;;;26.30;47.00;;;;;;5058139;28;20139;-60
2021/06/08 06:00:06;;;;;;;7.30;6.45;;;26.20;47.70;;;;;;5075437;28;20052;-60
2021/06/08 06:02:35;;;;;;;6.95;5.93;;;26.20;48.00;;;;;;5057467;28;20087;-60
2021/06/08 06:05:03;;;;;;;8.63;6.13;;;26.10;48.10;;;;;;5058627;28;20446;-60
2021/06/08 06:07:31;;;;;;;7.30;6.15;;;26.10;48.10;;;;;;5062242;28;20148;-60
2021/06/08 06:10:00;;;;;;;11.07;7.07;;;26.00;48.20;;;;;;5061136;28;20159;-60
2021/06/08 06:12:28;;;;;;;8.63;5.75;;;26.00;48.30;;;;;;5060957;28;20238;-59
2021/06/08 06:15:03;;;;;;;6.65;5.93;;;25.90;48.30;;;;;;5058328;28;20048;-59
2021/06/08 06:17:40;;;;;;;5.90;5.38;;;25.90;48.30;;;;;;5061003;28;20506;-59
2021/06/08 06:20:11;;;;;;;9.77;6.53;;;25.90;48.30;;;;;;5066900;28;20489;-59
2021/06/08 06:22:39;;;;;;;7.18;6.45;;;26.00;48.30;;;;;;5067438;28;20778;-59
2021/06/08 06:25:12;;;;;;;6.75;6.05;;;25.90;48.30;;;;;;5056982;28;20143;-61
2021/06/08 06:27:41;;;;;;;6.55;5.07;;;26.00;48.40;;;;;;5061552;28;20129;-61
2021/06/08 06:30:11;;;;;;;6.13;5.18;;;26.00;48.10;;;;;;5071123;28;20136;-60
2021/06/08 06:32:38;;;;;;;5.80;4.90;;;26.10;48.00;;;;;;5061423;28;20112;-61
2021/06/08 06:35:07;;;;;;;6.25;4.55;;;26.20;47.90;;;;;;5058362;28;20408;-61
2021/06/08 06:37:36;;;;;;;5.05;4.65;;;26.30;48.00;;;;;;5058159;28;20044;-60
2021/06/08 06:40:09;;;;;;;8.15;5.30;;;26.30;47.70;;;;;;5059235;28;20458;-60
2021/06/08 06:42:41;;;;;;;7.32;4.85;;;26.50;47.70;;;;;;5062312;28;20080;-59
2021/06/08 06:45:09;;;;;;;5.38;4.88;;;26.50;47.60;;;;;;5061501;28;20047;-59
2021/06/08 06:47:41;;;;;;;5.38;4.85;;;26.60;47.50;;;;;;5057483;28;20056;-61
2021/06/08 06:50:11;;;;;;;5.05;4.65;;;26.70;47.50;;;;;;5063107;28;20072;-59
2021/06/08 06:52:39;;;;;;;;;;;26.70;47.20;;;;;;5062546;28;20072;-60
2021/06/08 06:55:09;;;;;;;5.32;4.85;;;26.80;47.10;;;;;;5061041;28;20014;-60
2021/06/08 06:57:41;;;;;;;4.97;4.57;;;26.80;46.90;;;;;;5061764;28;20044;-59
2021/06/08 07:00:09;;;;;;;10.35;4.82;;;26.90;46.90;;;;;;5057927;28;20098;-59
2021/06/08 07:02:39;;;;;;;5.65;5.10;;;27.00;46.80;;;;;;5058514;28;20136;-59
2021/06/08 07:05:09;;;;;;;8.93;4.50;;;27.00;46.80;;;;;;5059752;28;20149;-58
2021/06/08 07:07:43;;;;;;;7.47;4.80;;;27.10;46.80;;;;;;5059135;28;20589;-59
2021/06/08 07:10:14;;;;;;;4.60;4.20;;;27.20;46.70;;;;;;5062469;28;20132;-59
2021/06/08 07:12:44;;;;;;;5.40;4.90;;;27.20;46.60;;;;;;5059715;28;20044;-59
2021/06/08 07:15:13;;;;;;;6.55;4.38;;;27.20;46.70;;;;;;5058452;28;20512;-59
2021/06/08 07:17:42;;;;;;;5.38;4.85;;;27.20;46.80;;;;;;5061694;28;20049;-59
2021/06/08 07:20:13;;;;;;;4.70;4.30;;;27.20;47.00;;;;;;5058970;28;20045;-59
2021/06/08 07:22:40;;;;;;;5.50;5.00;;;27.10;47.10;;;;;;5058796;28;20068;-60
2021/06/08 07:25:08;;;;;;;5.03;4.53;;;27.00;47.30;;;;;;5055556;28;20450;-59
2021/06/08 07:27:36;;;;;;;5.40;4.90;;;26.80;47.50;;;;;;5063050;28;20127;-59
2021/06/08 07:30:08;;;;;;;4.90;4.50;;;26.70;48.00;;;;;;5038670;28;20048;-60
2021/06/08 07:33:12;;;;;;;4.70;4.35;;;26.40;48.50;;;;;;5054324;28;20139;-59
2021/06/08 07:36:18;;;;;;;6.32;4.80;;;26.00;49.30;;;;;;5055340;28;20080;-59
2021/06/08 07:38:59;;;;;;;5.13;4.63;;;25.60;50.50;;;;;;5052971;28;20143;-58
2021/06/08 07:41:44;;;;;;;5.50;5.10;;;25.20;51.30;;;;;;5056607;28;20412;-59
2021/06/08 07:44:28;;;;;;;5.15;4.72;;;24.90;51.80;;;;;;5054268;28;20135;-58
2021/06/08 07:46:59;;;;;;;6.75;5.45;;;24.80;52.20;;;;;;5059333;28;20056;-59
2021/06/08 07:49:27;;;;;;;7.20;4.75;;;24.60;52.30;;;;;;5059721;28;20075;-58
2021/06/08 07:51:55;;;;;;;5.72;5.22;;;24.50;53.00;;;;;;5054995;28;20131;-59
2021/06/08 07:54:23;;;;;;;9.95;5.32;;;24.40;52.60;;;;;;5055839;28;20429;-59
2021/06/08 07:56:51;;;;;;;6.00;5.50;;;24.30;52.60;;;;;;5053242;28;20052;-59
2021/06/08 07:59:19;;;;;;;5.65;5.15;;;24.20;52.90;;;;;;5055413;28;20140;-59
2021/06/08 08:01:47;;;;;;;5.63;4.80;;;24.20;53.10;;;;;;5056236;28;20513;-59
2021/06/08 08:04:22;;;;;;;5.25;4.78;;;24.10;53.20;;;;;;5057518;28;20555;-59
2021/06/08 08:06:51;;;;;;;5.55;5.00;;;24.00;53.40;;;;;;5059903;28;20052;-59
2021/06/08 08:09:20;;;;;;;5.40;5.00;;;24.00;54.00;;;;;;5058811;28;20516;-61
2021/06/08 08:11:50;;;;;;;6.20;5.60;;;23.90;54.10;;;;;;5057766;28;20151;-59
2021/06/08 08:14:20;;;;;;;;;;;23.90;54.30;;;;;;5054663;28;20121;-58
2021/06/08 08:16:48;;;;;;;;;;;23.80;54.50;;;;;;5058322;28;19972;-59
2021/06/08 08:19:16;;;;;;;8.68;5.97;;;23.80;54.60;;;;;;5057254;28;19929;-58
2021/06/08 08:21:44;;;;;;;5.75;5.15;;;23.80;54.40;;;;;;5057279;28;20131;-58
2021/06/08 08:24:12;;;;;;;5.78;5.28;;;23.80;54.50;;;;;;5051358;28;20076;-58
2021/06/08 08:26:39;;;;;;;5.80;5.20;;;23.80;54.50;;;;;;5055672;28;20075;-59
2021/06/08 08:29:06;;;;;;;5.47;5.07;;;23.70;54.40;;;;;;5029897;28;20439;-60
2021/06/08 08:31:37;;;;;;;5.63;5.13;;;23.70;54.40;;;;;;5054521;28;20517;-59
2021/06/08 08:34:05;;;;;;;6.90;5.68;;;23.70;54.50;;;;;;5057136;28;20048;-59
2021/06/08 08:36:37;;;;;;;6.75;6.05;;;23.70;54.40;;;;;;5058366;28;20287;-60
2021/06/08 08:39:07;;;;;;;6.10;5.60;;;23.70;54.40;;;;;;5056466;28;20041;-59
2021/06/08 08:41:35;;;;;;;5.72;5.22;;;23.60;54.40;;;;;;5051789;28;20048;-59
2021/06/08 08:44:03;;;;;;;5.07;4.72;;;23.60;54.60;;;;;;5065918;28;20114;-58
2021/06/08 08:46:30;;;;;;;5.65;4.78;;;23.60;54.60;;;;;;5050595;28;20045;-58
2021/06/08 08:48:58;;;;;;;7.07;5.47;;;23.60;54.60;;;;;;5054209;28;20048;-59
2021/06/08 08:51:28;;;;;;;7.32;5.10;;;23.60;54.60;;;;;;5058009;28;20084;-58
2021/06/08 08:53:58;;;;;;;8.10;5.63;;;23.50;54.40;;;;;;5060265;28;20048;-59
2021/06/08 08:56:32;;;;;;;6.45;5.95;;;23.60;54.50;;;;;;5061219;28;20037;-58
2021/06/08 08:59:09;;;;;;;5.50;4.97;;;23.50;54.40;;;;;;5059159;28;20697;-59
2021/06/08 09:01:39;;;;;;;8.20;5.18;;;23.50;54.40;;;;;;5059064;28;20074;-60
2021/06/08 09:04:07;;;;;;;5.40;4.95;;;23.50;54.60;;;;;;5063197;28;20076;-57
2021/06/08 09:06:36;;;;;;;6.97;6.03;;;23.50;54.70;;;;;;5061305;28;20075;-58
2021/06/08 09:09:06;;;;;;;5.30;4.88;;;23.60;54.70;;;;;;5062663;28;20045;-61
2021/06/08 09:11:40;;;;;;;6.07;4.95;;;23.50;54.60;;;;;;5062666;28;20174;-58
2021/06/08 09:14:09;;;;;;;6.25;5.45;;;23.50;54.60;;;;;;5075157;28;20051;-59
2021/06/08 09:16:37;;;;;;;6.00;5.15;;;23.50;54.70;;;;;;5064871;28;20049;-60
2021/06/08 09:19:06;;;;;;;5.55;5.05;;;23.60;54.80;;;;;;5062328;28;20041;-60
2021/06/08 09:21:38;;;;;;;5.20;4.80;;;23.60;54.90;;;;;;5060700;28;20351;-60
2021/06/08 09:24:17;;;;;;;5.18;4.78;;;23.50;54.70;;;;;;5060089;28;20521;-60
2021/06/08 09:27:05;;;;;;;5.90;5.40;;;23.60;54.60;;;;;;5059821;28;20052;-61
2021/06/08 09:29:42;;;;;;;5.70;5.03;;;23.60;54.40;;;;;;5059007;28;20135;-60
2021/06/08 09:32:19;;;;;;;5.45;5.05;;;23.60;54.40;;;;;;5080156;28;20048;-60
2021/06/08 09:34:52;;;;;;;5.70;4.80;;;23.60;54.30;;;;;;5080120;28;20048;-59
2021/06/08 09:37:42;;;;;;;5.35;4.95;;;23.60;54.30;;;;;;5079952;28;20136;-60
2021/06/08 09:40:19;;;;;;;6.10;5.50;;;23.60;54.20;;;;;;5078368;28;20040;-60
2021/06/08 09:42:47;;;;;;;5.25;4.85;;;23.60;54.30;;;;;;5079212;28;20290;-61
2021/06/08 09:45:23;;;;;;;5.18;4.78;;;23.60;54.20;;;;;;5076680;28;20048;-60
2021/06/08 09:47:59;;;;;;;5.18;4.78;;;23.50;54.20;;;;;;5084396;28;20079;-60
2021/06/08 09:50:35;;;;;;;4.45;4.15;;;23.60;54.10;;;;;;5084439;28;20052;-60
2021/06/08 09:53:23;;;;;;;5.45;4.95;;;23.50;54.00;;;;;;5086016;28;20087;-60
2021/06/08 09:56:04;;;;;;;5.82;5.32;;;23.50;54.00;;;;;;5081111;28;20036;-60
2021/06/08 09:58:34;;;;;;;5.63;4.70;;;23.60;54.00;;;;;;5076098;28;20051;-59
2021/06/08 10:01:13;;;;;;;6.73;5.03;;;23.60;53.80;;;;;;5085786;28;20048;-61
2021/06/08 10:03:47;;;;;;;5.65;4.78;;;23.60;53.70;;;;;;5079877;28;20281;-60
2021/06/08 10:06:17;;;;;;;5.18;4.78;;;23.60;53.60;;;;;;5078982;28;20127;-59
2021/06/08 10:09:00;;;;;;;7.18;4.32;;;23.60;53.60;;;;;;5082403;28;20079;-60
2021/06/08 10:11:31;;;;;;;5.68;5.07;;;23.60;53.80;;;;;;5081294;28;20039;-59
2021/06/08 10:14:08;;;;;;;;;;;23.60;54.30;;;;;;5082010;28;20064;-60
2021/06/08 10:16:37;;;;;;;5.22;4.72;;;23.60;53.60;;;;;;5086629;28;20424;-60
2021/06/08 10:19:06;;;;;;;5.13;4.65;;;23.60;53.50;;;;;;5086396;28;20047;-60
2021/06/08 10:21:47;;;;;;;5.05;4.55;;;23.60;53.40;;;;;;5084554;28;20072;-60
2021/06/08 10:24:21;;;;;;;5.10;4.60;;;23.60;53.50;;;;;;5079937;28;20505;-62
2021/06/08 10:26:52;;;;;;;5.03;4.63;;;23.60;54.00;;;;;;5086992;28;20535;-59
2021/06/08 10:29:20;;;;;;;;;;;23.60;53.40;;;;;;5058809;28;20069;-59
2021/06/08 10:31:47;;;;;;;4.90;4.50;;;23.50;53.30;;;;;;5062096;28;20007;-59
2021/06/08 10:34:34;;;;;;;5.28;4.78;;;23.60;53.30;;;;;;5063950;28;20049;-59
2021/06/08 10:37:02;;;;;;;4.55;4.15;;;23.60;53.20;;;;;;5060758;28;20102;-59
2021/06/08 10:39:29;;;;;;;5.80;4.57;;;23.60;53.10;;;;;;5062978;28;20040;-59
2021/06/08 10:41:58;;;;;;;4.65;4.25;;;23.60;53.00;;;;;;5064075;28;20056;-59
2021/06/08 10:44:28;;;;;;;7.40;4.53;;;23.60;53.00;;;;;;5059110;28;20044;-59
2021/06/08 10:47:07;;;;;;;5.07;4.47;;;23.60;53.10;;;;;;5055628;28;20075;-60
2021/06/08 10:49:41;;;;;;;7.97;5.35;;;23.60;53.10;;;;;;5057737;28;20098;-60
2021/06/08 10:52:11;;;;;;;4.60;4.13;;;23.70;52.90;;;;;;5060611;28;20049;-59
2021/06/08 10:54:47;;;;;;;4.68;4.28;;;23.70;52.80;;;;;;5057047;28;20537;-60
2021/06/08 10:57:17;;;;;;;4.93;4.30;;;23.70;52.80;;;;;;5057769;28;20060;-59
2021/06/08 10:59:52;;;;;;;4.23;3.83;;;23.70;52.70;;;;;;5048410;28;20049;-59
2021/06/08 11:02:46;;;;;;;4.57;4.20;;;23.70;52.60;;;;;;5057450;28;20293;-59
2021/06/08 11:05:15;;;;;;;4.90;4.38;;;23.80;52.60;;;;;;5058005;28;20044;-59
2021/06/08 11:07:51;;;;;;;5.03;4.63;;;23.80;52.60;;;;;;5051710;28;20958;-59
2021/06/08 11:10:54;;;;;;;5.00;4.60;;;23.80;52.50;;;;;;5047949;28;20459;-60
2021/06/08 11:13:42;;;;;;;4.78;4.38;;;23.80;52.50;;;;;;5057536;28;20056;-60
2021/06/08 11:16:31;;;;;;;4.90;4.43;;;23.80;52.60;;;;;;5061964;28;20532;-60
2021/06/08 11:18:58;;;;;;;6.13;4.35;;;23.80;52.80;;;;;;5061894;28;20052;-60
2021/06/08 11:21:27;;;;;;;6.93;4.20;;;23.80;52.70;;;;;;5056592;28;20049;-60
2021/06/08 11:23:55;;;;;;;4.80;4.40;;;23.80;52.80;;;;;;5059590;28;20051;-60
2021/06/08 11:26:47;;;;;;;4.30;3.90;;;23.80;52.60;;;;;;5059859;28;20110;-60
2021/06/08 11:29:54;;;;;;;4.75;4.32;;;23.80;52.60;;;;;;5060074;28;20044;-59
2021/06/08 11:32:42;;;;;;;4.80;4.35;;;23.80;52.60;;;;;;5075178;28;20048;-59
2021/06/08 11:35:36;;;;;;;4.80;4.40;;;23.90;52.50;;;;;;5078625;28;20048;-59
2021/06/08 11:38:25;;;;;;;4.78;4.10;;;23.90;52.40;;;;;;5075785;28;20698;-59
2021/06/08 11:41:02;;;;;;;5.50;4.82;;;23.90;52.50;;;;;;5073146;28;20140;-59
2021/06/08 11:43:51;;;;;;;4.50;4.10;;;23.90;52.50;;;;;;5077787;28;20127;-59
2021/06/08 11:46:31;;;;;;;4.78;4.38;;;23.90;52.30;;;;;;5072620;28;20123;-59
2021/06/08 11:49:18;;;;;;;4.25;3.92;;;23.90;52.40;;;;;;5080489;28;20181;-59
2021/06/08 11:52:09;;;;;;;4.78;4.30;;;23.90;52.30;;;;;;5080150;28;20043;-59
2021/06/08 11:54:39;;;;;;;4.82;4.38;;;23.90;52.20;;;;;;5077954;28;20051;-59
2021/06/08 11:57:10;;;;;;;4.53;4.13;;;23.90;52.20;;;;;;5065257;28;20044;-59
2021/06/08 11:59:57;;;;;;;5.43;4.45;;;24.00;52.20;;;;;;5071835;28;20136;-59
2021/06/08 12:02:40;;;;;;;4.28;3.92;;;24.00;52.20;;;;;;5076273;28;20051;-58
2021/06/08 12:05:20;;;;;;;4.20;3.80;;;24.00;52.30;;;;;;5079885;28;20054;-56
2021/06/08 12:07:53;;;;;;;6.80;4.45;;;24.00;52.10;;;;;;5082803;28;20044;-59
2021/06/08 12:10:36;;;;;;;5.10;4.35;;;24.00;52.10;;;;;;5079341;28;20815;-58
2021/06/08 12:13:11;;;;;;;4.35;3.97;;;24.00;51.90;;;;;;5081213;28;20067;-59
2021/06/08 12:15:44;;;;;;;4.43;4.05;;;24.10;51.40;;;;;;5082660;28;20083;-59
2021/06/08 12:18:24;;;;;;;4.05;3.75;;;24.10;51.30;;;;;;5082351;28;20411;-59
2021/06/08 12:21:15;;;;;;;5.28;3.85;;;24.10;51.20;;;;;;5083278;28;20126;-59
2021/06/08 12:23:43;;;;;;;4.93;4.13;;;24.10;51.40;;;;;;5084548;28;20070;-59
2021/06/08 12:26:20;;;;;;;4.57;4.22;;;24.10;51.40;;;;;;5083454;28;20101;-59
2021/06/08 12:29:12;;;;;;;4.68;4.28;;;24.10;51.40;;;;;;5070904;28;20048;-59
2021/06/08 12:31:53;;;;;;;5.13;4.22;;;24.10;51.50;;;;;;5081992;28;20147;-59
2021/06/08 12:34:21;;;;;;;;;;;24.10;51.70;;;;;;5080640;28;20092;-58
2021/06/08 12:36:49;;;;;;;7.25;4.45;;;24.10;51.60;;;;;;5083778;28;19963;-59
2021/06/08 12:39:19;;;;;;;4.47;4.07;;;24.10;51.50;;;;;;5084737;28;20850;-59
2021/06/08 12:41:47;;;;;;;4.78;3.72;;;24.10;51.40;;;;;;5081058;28;20147;-59
2021/06/08 12:44:26;;;;;;;4.32;4.03;;;24.10;51.30;;;;;;5082574;28;20147;-59
2021/06/08 12:46:54;;;;;;;4.35;3.97;;;24.10;51.40;;;;;;5080381;28;20131;-60
2021/06/08 12:49:22;;;;;;;4.60;4.30;;;24.10;51.20;;;;;;5080962;28;20497;-59
2021/06/08 12:51:57;;;;;;;4.63;4.22;;;24.10;51.20;;;;;;5082374;28;20474;-59
2021/06/08 12:54:35;;;;;;;4.15;3.70;;;24.20;51.30;;;;;;5078923;28;20044;-59
2021/06/08 12:57:05;;;;;;;4.68;4.28;;;24.20;51.30;;;;;;5083455;28;20090;-59
2021/06/08 12:59:49;;;;;;;3.97;3.67;;;24.20;51.10;;;;;;5086346;28;20455;-58
2021/06/08 13:02:17;;;;;;;4.43;4.03;;;24.30;51.10;;;;;;5080914;28;20052;-59
2021/06/08 13:04:46;;;;;;;4.82;4.25;;;24.30;51.00;;;;;;5076673;28;20413;-59
2021/06/08 13:07:22;;;;;;;3.88;3.58;;;24.30;51.20;;;;;;5076244;28;20138;-60
2021/06/08 13:10:06;;;;;;;6.65;3.85;;;24.30;51.40;;;;;;5076991;28;20051;-58
2021/06/08 13:12:41;;;;;;;4.20;3.85;;;24.40;51.60;;;;;;5083714;28;20094;-57
2021/06/08 13:15:10;;;;;;;7.75;4.68;;;24.40;51.50;;;;;;5083549;28;20044;-59
2021/06/08 13:17:38;;;;;;;4.30;4.00;;;24.50;51.50;;;;;;5085978;28;20080;-59
2021/06/08 13:20:23;;;;;;;4.28;3.88;;;24.40;51.30;;;;;;5084338;28;20136;-59